Terminal Aerodrome Forecast
Issued by NWS

Home | Current Version | Previous Version | Text Only | Print | Product List | Glossary On
Versions: 1 2 3 4 5 6 7 8 9 10 11 12 13 14 15 16 17 18 19 20
000
FTUS46 KMFR 010530
TAFOTH
TAF
KOTH 010530Z 0106/0206 35006KT P6SM SCT015 BKN250
     FM010800 VRB03KT P6SM BKN015
     FM011000 VRB03KT P6SM BKN007 BKN015
     FM011600 34007KT P6SM SCT010 SCT250
     FM011900 35012G20KT P6SM SCT250
     FM020300 36010KT P6SM SCT250=

USA.gov is the U.S. government's official web portal to all federal, state and local government web resources and services.